createdAt,value
2022-08-09T00:00:23.389Z,18.51
2022-08-09T00:02:51.849Z,18.48
2022-08-09T00:06:15.805Z,18.46
2022-08-09T00:08:12.864Z,18.58
2022-08-09T00:10:40.615Z,18.50
2022-08-09T00:13:17.174Z,18.30
2022-08-09T00:15:57.942Z,18.29
2022-08-09T00:18:34.935Z,18.35
2022-08-09T00:21:08.483Z,18.23
2022-08-09T00:23:57.861Z,18.09
2022-08-09T00:26:29.750Z,18.28
2022-08-09T00:29:00.537Z,18.24
2022-08-09T00:31:57.651Z,18.15
2022-08-09T00:34:14.533Z,17.92
2022-08-09T00:36:47.867Z,17.98
2022-08-09T00:40:08.877Z,17.94
2022-08-09T00:44:16.377Z,17.92
2022-08-09T00:44:48.667Z,17.79
2022-08-09T00:47:16.126Z,17.92
2022-08-09T00:49:52.558Z,17.97
2022-08-09T00:52:30.298Z,17.95
2022-08-09T00:55:01.655Z,17.82
2022-08-09T00:57:34.273Z,17.87
2022-08-09T01:00:21.279Z,17.89
2022-08-09T01:02:54.933Z,17.79
2022-08-09T01:05:53.292Z,17.89
2022-08-09T01:08:31.445Z,17.98
2022-08-09T01:11:26.427Z,18.04
2022-08-09T01:14:08.018Z,17.85
2022-08-09T01:16:47.179Z,17.76
2022-08-09T01:19:51.852Z,17.60
2022-08-09T01:22:42.678Z,17.67
2022-08-09T01:25:25.124Z,17.47
2022-08-09T01:27:53.969Z,17.63
2022-08-09T01:30:33.672Z,17.64
2022-08-09T01:33:04.482Z,17.58
2022-08-09T01:35:45.876Z,17.65
2022-08-09T01:38:20.927Z,17.83
2022-08-09T01:41:04.754Z,17.71
2022-08-09T01:43:50.082Z,17.73
2022-08-09T01:46:31.647Z,17.83
2022-08-09T01:49:18.717Z,17.71
2022-08-09T01:51:54.757Z,17.82
2022-08-09T01:54:24.156Z,17.75
2022-08-09T01:56:52.620Z,17.88
2022-08-09T01:59:20.786Z,17.84
2022-08-09T02:01:59.988Z,17.83
2022-08-09T02:04:28.546Z,17.86
2022-08-09T02:07:15.300Z,17.90
2022-08-09T02:09:59.750Z,17.91
2022-08-09T02:12:29.467Z,17.77
2022-08-09T02:14:58.573Z,17.64
2022-08-09T02:18:00.799Z,17.68
2022-08-09T02:20:25.016Z,17.69
2022-08-09T02:22:59.237Z,17.67
2022-08-09T02:25:33.203Z,17.69
2022-08-09T02:28:17.894Z,17.61
2022-08-09T02:30:49.055Z,17.56
2022-08-09T02:33:23.671Z,17.58
2022-08-09T02:36:15.815Z,17.63
2022-08-09T02:38:51.982Z,17.67
2022-08-09T02:41:27.126Z,17.56
2022-08-09T02:43:56.668Z,17.61
2022-08-09T02:46:27.838Z,17.62
2022-08-09T02:48:59.644Z,17.51
2022-08-09T02:51:28.165Z,17.55
2022-08-09T02:54:05.239Z,17.40
2022-08-09T02:56:33.445Z,17.46
2022-08-09T02:59:03.736Z,17.37
2022-08-09T03:01:43.157Z,17.44
2022-08-09T03:04:20.666Z,17.44
2022-08-09T03:06:53.482Z,17.54
2022-08-09T03:09:21.391Z,17.54
2022-08-09T03:12:05.450Z,17.54
2022-08-09T03:14:36.483Z,17.61
2022-08-09T03:17:05.626Z,17.52
2022-08-09T03:19:57.811Z,17.42
2022-08-09T03:22:41.480Z,17.30
2022-08-09T03:25:26.475Z,17.27
2022-08-09T03:27:57.720Z,17.32
2022-08-09T03:30:29.228Z,17.30
2022-08-09T03:33:01.456Z,17.29
2022-08-09T03:36:07.916Z,17.27
2022-08-09T03:38:28.836Z,17.21
2022-08-09T03:40:56.279Z,17.31
2022-08-09T03:43:23.219Z,17.35
2022-08-09T03:46:04.315Z,17.34
2022-08-09T03:48:51.299Z,17.49
2022-08-09T03:51:55.660Z,17.57
2022-08-09T03:54:12.662Z,17.59
2022-08-09T03:56:40.948Z,17.55
2022-08-09T03:59:17.093Z,17.53
2022-08-09T04:01:50.100Z,17.42
2022-08-09T04:04:17.658Z,17.45
2022-08-09T04:06:49.200Z,17.42
2022-08-09T04:09:47.911Z,17.45
2022-08-09T04:12:12.056Z,17.49
2022-08-09T04:15:00.790Z,17.56
2022-08-09T04:17:27.201Z,17.62
2022-08-09T04:19:57.231Z,17.69
2022-08-09T04:22:24.648Z,17.81
2022-08-09T04:24:54.941Z,17.81
2022-08-09T04:27:22.172Z,17.90
2022-08-09T04:29:50.470Z,18.05
2022-08-09T04:32:31.218Z,18.23
2022-08-09T04:34:58.585Z,18.37
2022-08-09T04:37:46.055Z,18.69
2022-08-09T04:40:28.533Z,18.65
2022-08-09T04:43:04.704Z,18.87
2022-08-09T04:45:36.149Z,18.91
2022-08-09T04:48:19.421Z,19.82
2022-08-09T04:50:49.880Z,21.10
2022-08-09T04:53:17.145Z,21.42
2022-08-09T04:55:57.517Z,22.78
2022-08-09T04:58:26.722Z,23.10
2022-08-09T05:00:54.510Z,24.31
2022-08-09T05:03:40.411Z,25.33
2022-08-09T05:06:11.329Z,25.06
2022-08-09T05:08:38.367Z,24.61
2022-08-09T05:11:06.786Z,25.39
2022-08-09T05:13:38.643Z,25.75
2022-08-09T05:16:07.905Z,26.53
2022-08-09T05:18:50.601Z,27.15
2022-08-09T05:21:24.228Z,26.17
2022-08-09T05:23:58.116Z,25.87
2022-08-09T05:26:45.255Z,25.14
2022-08-09T05:29:21.913Z,24.93
2022-08-09T05:31:57.691Z,24.68
2022-08-09T05:34:31.206Z,23.69
2022-08-09T05:37:05.223Z,23.73
2022-08-09T05:39:42.856Z,23.96
2022-08-09T05:42:17.662Z,24.09
2022-08-09T05:44:53.425Z,24.07
2022-08-09T05:47:22.821Z,23.55
2022-08-09T05:50:30.022Z,23.46
2022-08-09T05:52:39.534Z,23.82
2022-08-09T05:55:08.945Z,24.12
2022-08-09T05:57:50.663Z,23.61
2022-08-09T06:00:25.977Z,24.16
2022-08-09T06:02:54.635Z,24.20
2022-08-09T06:05:31.083Z,24.45
2022-08-09T06:08:19.355Z,24.40
2022-08-09T06:10:55.535Z,24.57
2022-08-09T06:13:23.529Z,24.32
2022-08-09T06:15:52.269Z,24.97
2022-08-09T06:18:23.810Z,25.07
2022-08-09T06:20:54.871Z,25.29
2022-08-09T06:23:55.643Z,24.26
2022-08-09T06:26:12.704Z,24.49
2022-08-09T06:28:43.522Z,24.60
2022-08-09T06:31:10.853Z,24.52
2022-08-09T06:33:40.626Z,24.90
2022-08-09T06:36:09.441Z,25.21
2022-08-09T06:38:39.110Z,25.41
2022-08-09T06:41:18.393Z,25.16
2022-08-09T06:43:47.769Z,25.33
2022-08-09T06:46:39.089Z,25.76
2022-08-09T06:49:04.564Z,25.94
2022-08-09T06:51:33.676Z,26.13
2022-08-09T06:54:09.155Z,25.87
2022-08-09T06:56:39.482Z,26.03
2022-08-09T07:00:52.508Z,26.06
2022-08-09T07:02:03.925Z,25.60
2022-08-09T07:04:32.183Z,26.03
2022-08-09T07:07:00.612Z,26.00
2022-08-09T07:09:55.597Z,25.97
2022-08-09T07:12:20.126Z,25.85
2022-08-09T07:16:35.355Z,25.04
2022-08-09T07:17:56.455Z,24.60
2022-08-09T07:20:29.538Z,25.56
2022-08-09T07:22:56.816Z,25.88
2022-08-09T07:25:25.584Z,26.16
2022-08-09T07:27:53.214Z,26.27
2022-08-09T07:30:24.759Z,25.66
2022-08-09T07:32:52.729Z,26.00
2022-08-09T07:35:19.668Z,26.34
2022-08-09T07:37:49.132Z,26.89
2022-08-09T07:40:18.546Z,26.20
2022-08-09T07:42:56.039Z,26.02
2022-08-09T07:45:37.513Z,25.86
2022-08-09T07:48:28.342Z,26.40
2022-08-09T07:51:02.970Z,26.41
2022-08-09T07:54:05.023Z,26.52
2022-08-09T07:56:27.479Z,26.18
2022-08-09T07:58:55.471Z,25.99
2022-08-09T08:01:32.925Z,26.78
2022-08-09T08:04:02.766Z,26.78
2022-08-09T08:06:31.952Z,26.30
2022-08-09T08:09:04.986Z,26.98
2022-08-09T08:12:19.775Z,27.26
2022-08-09T08:14:21.059Z,27.49
2022-08-09T08:17:00.341Z,27.67
2022-08-09T08:19:40.586Z,27.80
2022-08-09T08:22:13.359Z,27.88
2022-08-09T08:24:44.798Z,27.93
2022-08-09T08:27:16.884Z,27.56
2022-08-09T08:29:50.214Z,27.71
2022-08-09T08:32:41.292Z,28.17
2022-08-09T08:35:07.686Z,28.11
2022-08-09T08:37:42.007Z,27.52
2022-08-09T08:40:23.152Z,28.05
2022-08-09T08:42:53.687Z,27.63
2022-08-09T08:45:50.788Z,28.04
2022-08-09T08:48:19.502Z,28.16
2022-08-09T08:50:49.211Z,28.92
2022-08-09T08:53:21.779Z,29.01
2022-08-09T08:55:49.114Z,29.30
2022-08-09T08:58:20.065Z,29.33
2022-08-09T09:00:56.888Z,29.04
2022-08-09T09:03:33.145Z,29.56
2022-08-09T09:06:05.811Z,29.49
2022-08-09T09:08:37.894Z,29.77
2022-08-09T09:11:08.373Z,29.99
2022-08-09T09:13:47.301Z,30.03
2022-08-09T09:16:34.915Z,30.09
2022-08-09T09:19:37.256Z,29.92
2022-08-09T09:22:04.282Z,29.85
2022-08-09T09:24:43.217Z,30.37
2022-08-09T09:28:03.084Z,30.16
2022-08-09T09:30:23.733Z,30.60
2022-08-09T09:33:13.808Z,30.37
2022-08-09T09:36:21.066Z,30.51
2022-08-09T09:38:57.162Z,30.59
2022-08-09T09:41:27.835Z,30.31
2022-08-09T09:44:11.436Z,29.20
2022-08-09T09:46:50.388Z,30.40
2022-08-09T09:49:31.585Z,30.77
2022-08-09T09:52:16.297Z,31.01
2022-08-09T09:55:28.743Z,30.95
2022-08-09T09:58:16.939Z,30.67
2022-08-09T10:00:53.768Z,31.00
2022-08-09T10:03:58.247Z,31.06
2022-08-09T10:06:43.474Z,31.31
2022-08-09T10:09:22.949Z,31.51
2022-08-09T10:12:14.774Z,31.96
2022-08-09T10:14:49.930Z,31.06
2022-08-09T10:17:39.764Z,30.51
2022-08-09T10:20:27.730Z,31.14
2022-08-09T10:23:13.934Z,30.51
2022-08-09T10:26:04.371Z,31.17
2022-08-09T10:28:34.236Z,30.41
2022-08-09T10:34:11.106Z,29.85
2022-08-09T10:36:36.379Z,29.74
2022-08-09T10:39:06.036Z,30.29
2022-08-09T10:41:43.107Z,30.34
2022-08-09T10:44:10.254Z,30.82
2022-08-09T10:46:57.160Z,31.28
2022-08-09T10:49:50.034Z,31.67
2022-08-09T10:52:51.771Z,31.62
2022-08-09T10:55:27.642Z,30.40
2022-08-09T10:58:00.217Z,30.15
2022-08-09T11:00:56.894Z,30.65
2022-08-09T11:03:46.999Z,30.66
2022-08-09T11:06:19.454Z,29.39
2022-08-09T11:08:51.819Z,30.30
2022-08-09T11:11:23.232Z,30.04
2022-08-09T11:14:35.439Z,30.02
2022-08-09T11:17:24.601Z,30.25
2022-08-09T11:20:11.134Z,29.97
2022-08-09T11:22:47.295Z,31.36
2022-08-09T11:25:47.554Z,31.50
2022-08-09T11:28:54.273Z,31.27
2022-08-09T11:31:49.651Z,31.20
2022-08-09T11:34:38.996Z,30.48
2022-08-09T11:37:07.820Z,29.87
2022-08-09T11:40:18.094Z,29.17
2022-08-09T11:42:49.882Z,29.19
2022-08-09T11:45:21.554Z,29.45
2022-08-09T11:47:54.006Z,30.09
2022-08-09T11:50:54.922Z,29.45
2022-08-09T11:53:43.986Z,30.18
2022-08-09T11:56:02.345Z,30.44
2022-08-09T11:58:33.621Z,30.63
2022-08-09T12:01:37.224Z,30.89
2022-08-09T12:04:04.829Z,31.54
2022-08-09T12:06:35.326Z,30.98
2022-08-09T12:09:15.045Z,31.25
2022-08-09T12:12:03.445Z,30.82
2022-08-09T12:14:40.651Z,31.02
2022-08-09T12:17:33.876Z,32.03
2022-08-09T12:20:16.482Z,31.57
2022-08-09T12:22:55.737Z,30.77
2022-08-09T12:25:36.540Z,31.34
2022-08-09T12:29:14.548Z,30.62
2022-08-09T12:30:59.870Z,31.61
2022-08-09T12:33:51.114Z,31.51
2022-08-09T12:36:27.328Z,30.82
2022-08-09T12:38:58.701Z,30.07
2022-08-09T12:41:36.314Z,29.99
2022-08-09T12:44:12.692Z,29.68
2022-08-09T12:46:49.067Z,29.85
2022-08-09T12:49:17.530Z,30.55
2022-08-09T12:52:01.942Z,30.12
2022-08-09T12:56:10.631Z,30.04
2022-08-09T12:57:38.683Z,29.41
2022-08-09T13:00:19.109Z,29.41
2022-08-09T13:02:58.583Z,29.34
2022-08-09T13:05:35.574Z,29.92
2022-08-09T13:08:21.100Z,29.87
2022-08-09T13:11:13.381Z,29.37
2022-08-09T13:14:41.192Z,29.49
2022-08-09T13:16:48.295Z,30.09
2022-08-09T13:20:09.336Z,30.23
2022-08-09T13:22:35.478Z,29.93
2022-08-09T13:25:13.903Z,30.28
2022-08-09T13:27:48.167Z,29.48
2022-08-09T13:30:50.543Z,29.53
2022-08-09T13:33:11.932Z,29.33
2022-08-09T13:36:41.768Z,28.95
2022-08-09T13:38:54.937Z,29.24
2022-08-09T13:41:58.322Z,29.83
2022-08-09T13:44:09.209Z,29.99
2022-08-09T13:47:13.058Z,29.98
2022-08-09T13:49:33.987Z,29.72
2022-08-09T13:52:09.270Z,30.03
2022-08-09T13:54:42.838Z,30.27
2022-08-09T13:57:36.482Z,30.30
2022-08-09T14:00:05.699Z,30.28
2022-08-09T14:02:33.036Z,30.52
2022-08-09T14:05:03.507Z,30.26
2022-08-09T14:07:41.133Z,29.71
2022-08-09T14:10:17.605Z,30.01
2022-08-09T14:12:58.675Z,29.60
2022-08-09T14:16:07.287Z,29.82
2022-08-09T14:18:27.482Z,29.95
2022-08-09T14:20:57.184Z,30.07
2022-08-09T14:23:40.132Z,29.79
2022-08-09T14:26:11.273Z,29.97
2022-08-09T14:28:38.583Z,29.31
2022-08-09T14:31:07.394Z,29.66
2022-08-09T14:33:38.133Z,29.30
2022-08-09T14:36:20.766Z,29.18
2022-08-09T14:38:52.823Z,29.52
2022-08-09T14:41:34.797Z,29.14
2022-08-09T14:44:07.166Z,28.99
2022-08-09T14:46:58.131Z,29.44
2022-08-09T14:49:25.530Z,29.21
2022-08-09T14:51:58.197Z,29.64
2022-08-09T14:54:28.117Z,29.41
2022-08-09T14:56:58.666Z,29.03
2022-08-09T14:59:28.645Z,29.09
2022-08-09T15:01:56.070Z,29.45
2022-08-09T15:04:23.481Z,29.52
2022-08-09T15:06:51.677Z,29.49
2022-08-09T15:10:03.626Z,29.06
2022-08-09T15:12:09.809Z,28.89
2022-08-09T15:14:39.101Z,28.98
2022-08-09T15:17:09.873Z,28.87
2022-08-09T15:19:54.450Z,28.98
2022-08-09T15:22:26.874Z,29.07
2022-08-09T15:24:54.455Z,29.22
2022-08-09T15:27:21.931Z,29.25
2022-08-09T15:30:57.173Z,29.16
2022-08-09T15:32:37.568Z,29.27
2022-08-09T15:35:17.829Z,29.21
2022-08-09T15:37:57.062Z,28.85
2022-08-09T15:40:38.361Z,28.54
2022-08-09T15:43:13.486Z,28.62
2022-08-09T15:46:07.287Z,28.73
2022-08-09T15:48:31.759Z,28.70
2022-08-09T15:51:11.423Z,28.51
2022-08-09T15:54:03.885Z,28.65
2022-08-09T15:56:37.100Z,28.61
2022-08-09T15:59:04.363Z,28.73
2022-08-09T16:01:35.371Z,28.66
2022-08-09T16:04:03.046Z,28.66
2022-08-09T16:06:35.559Z,28.50
2022-08-09T16:09:05.667Z,28.40
2022-08-09T16:11:33.046Z,28.45
2022-08-09T16:14:06.901Z,28.44
2022-08-09T16:16:39.041Z,28.45
2022-08-09T16:19:10.151Z,28.47
2022-08-09T16:21:42.262Z,28.61
2022-08-09T16:24:33.864Z,28.64
2022-08-09T16:27:01.997Z,28.65
2022-08-09T16:29:37.101Z,28.48
2022-08-09T16:32:33.245Z,28.52
2022-08-09T16:35:02.341Z,28.64
2022-08-09T16:37:55.257Z,28.56
2022-08-09T16:40:20.362Z,28.46
2022-08-09T16:42:48.319Z,28.33
2022-08-09T16:45:21.354Z,28.36
2022-08-09T16:48:42.404Z,28.42
2022-08-09T16:50:38.659Z,28.35
2022-08-09T16:53:11.891Z,28.30
2022-08-09T16:55:57.807Z,28.19
2022-08-09T16:58:26.026Z,28.08
2022-08-09T17:00:53.575Z,28.01
2022-08-09T17:03:22.965Z,27.87
2022-08-09T17:06:06.771Z,27.88
2022-08-09T17:09:02.722Z,27.79
2022-08-09T17:11:33.084Z,27.76
2022-08-09T17:14:07.548Z,27.68
2022-08-09T17:16:38.346Z,27.67
2022-08-09T17:19:05.541Z,27.63
2022-08-09T17:21:32.421Z,27.55
2022-08-09T17:24:27.136Z,27.54
2022-08-09T17:26:47.810Z,27.51
2022-08-09T17:29:21.131Z,27.40
2022-08-09T17:31:49.153Z,27.28
2022-08-09T17:35:02.025Z,27.23
2022-08-09T17:37:03.878Z,27.20
2022-08-09T17:39:48.263Z,27.16
2022-08-09T17:42:42.174Z,27.11
2022-08-09T17:45:06.570Z,27.07
2022-08-09T17:47:49.796Z,26.99
2022-08-09T17:50:24.876Z,26.89
2022-08-09T17:53:04.761Z,26.79
2022-08-09T17:55:49.379Z,26.57
2022-08-09T17:58:19.168Z,26.23
2022-08-09T18:00:48.008Z,26.27
2022-08-09T18:03:15.383Z,26.26
2022-08-09T18:05:45.137Z,26.24
2022-08-09T18:08:22.019Z,26.28
2022-08-09T18:11:01.013Z,26.31
2022-08-09T18:13:42.962Z,26.26
2022-08-09T18:16:17.503Z,26.26
2022-08-09T18:18:57.322Z,26.29
2022-08-09T18:21:26.337Z,26.21
2022-08-09T18:24:10.773Z,26.16
2022-08-09T18:26:46.481Z,26.08
2022-08-09T18:30:39.958Z,26.10
2022-08-09T18:32:02.899Z,26.00
2022-08-09T18:34:31.748Z,25.95
2022-08-09T18:37:00.704Z,25.87
2022-08-09T18:39:32.650Z,25.76
2022-08-09T18:42:08.891Z,25.72
2022-08-09T18:44:36.056Z,25.69
2022-08-09T18:47:08.329Z,25.67
2022-08-09T18:49:46.705Z,25.65
2022-08-09T18:52:16.098Z,25.61
2022-08-09T18:54:52.635Z,25.58
2022-08-09T18:57:22.445Z,25.60
2022-08-09T18:59:56.339Z,25.61
2022-08-09T19:02:32.314Z,25.52
2022-08-09T19:05:15.201Z,25.52
2022-08-09T19:08:04.613Z,25.40
2022-08-09T19:10:37.741Z,25.21
2022-08-09T19:13:19.290Z,25.07
2022-08-09T19:15:49.969Z,25.02
2022-08-09T19:18:33.003Z,24.98
2022-08-09T19:21:01.428Z,24.94
2022-08-09T19:24:39.489Z,24.81
2022-08-09T19:26:17.136Z,24.87
2022-08-09T19:28:48.784Z,24.73
2022-08-09T19:31:16.832Z,24.69
2022-08-09T19:33:43.797Z,24.52
2022-08-09T19:36:11.796Z,24.00
2022-08-09T19:38:40.550Z,23.69
2022-08-09T19:41:10.269Z,23.60
2022-08-09T19:44:00.384Z,23.52
2022-08-09T19:46:34.237Z,23.37
2022-08-09T19:50:09.151Z,23.36
2022-08-09T19:51:55.515Z,23.24
2022-08-09T19:54:26.950Z,23.23
2022-08-09T19:56:58.684Z,23.28
2022-08-09T19:59:39.737Z,23.33
2022-08-09T20:04:07.480Z,23.32
2022-08-09T20:05:10.364Z,23.27
2022-08-09T20:07:59.001Z,23.43
2022-08-09T20:10:34.561Z,23.47
2022-08-09T20:13:05.135Z,23.40
2022-08-09T20:16:34.642Z,23.48
2022-08-09T20:18:21.326Z,23.50
2022-08-09T20:20:51.061Z,23.34
2022-08-09T20:23:21.154Z,23.44
2022-08-09T20:25:52.144Z,23.41
2022-08-09T20:28:27.788Z,23.37
2022-08-09T20:31:04.682Z,23.29
2022-08-09T20:33:41.059Z,23.27
2022-08-09T20:36:11.218Z,23.29
2022-08-09T20:39:06.683Z,23.21
2022-08-09T20:41:34.868Z,23.29
2022-08-09T20:44:09.786Z,23.33
2022-08-09T20:46:43.226Z,23.30
2022-08-09T20:49:13.062Z,23.34
2022-08-09T20:51:42.108Z,23.31
2022-08-09T20:54:17.168Z,23.23
2022-08-09T20:56:49.907Z,23.04
2022-08-09T20:59:25.034Z,23.10
2022-08-09T21:02:10.582Z,23.11
2022-08-09T21:05:57.786Z,23.03
2022-08-09T21:07:30.316Z,23.04
2022-08-09T21:10:08.343Z,23.06
2022-08-09T21:12:37.175Z,22.91
2022-08-09T21:15:04.782Z,22.82
2022-08-09T21:18:21.641Z,22.82
2022-08-09T21:20:26.393Z,22.82
2022-08-09T21:22:54.463Z,22.68
2022-08-09T21:25:44.452Z,22.70
2022-08-09T21:28:34.187Z,22.73
2022-08-09T21:31:17.580Z,22.67
2022-08-09T21:33:52.356Z,22.71
2022-08-09T21:36:23.055Z,22.67
2022-08-09T21:38:51.038Z,22.70
2022-08-09T21:42:04.117Z,22.62
2022-08-09T21:44:33.217Z,22.59
2022-08-09T21:47:05.811Z,22.53
2022-08-09T21:49:40.329Z,22.50
2022-08-09T21:52:16.278Z,22.44
2022-08-09T21:54:57.217Z,22.43
2022-08-09T21:57:39.586Z,22.44
2022-08-09T22:00:34.494Z,22.42
2022-08-09T22:03:05.673Z,22.30
2022-08-09T22:05:37.637Z,22.32
2022-08-09T22:08:13.487Z,22.38
2022-08-09T22:11:00.876Z,22.38
2022-08-09T22:13:34.882Z,22.27
2022-08-09T22:16:07.458Z,22.32
2022-08-09T22:18:35.277Z,22.27
2022-08-09T22:21:10.052Z,22.21
2022-08-09T22:23:59.415Z,22.25
2022-08-09T22:26:35.341Z,22.17
2022-08-09T22:29:09.398Z,22.07
2022-08-09T22:31:37.987Z,22.07
2022-08-09T22:34:17.595Z,22.10
2022-08-09T22:36:47.674Z,22.08
2022-08-09T22:39:46.608Z,22.07
2022-08-09T22:42:03.945Z,22.11
2022-08-09T22:44:33.284Z,22.02
2022-08-09T22:48:11.987Z,22.02
2022-08-09T22:49:51.954Z,21.98
2022-08-09T22:52:19.845Z,21.94
2022-08-09T22:54:47.549Z,21.87
2022-08-09T22:57:15.162Z,21.78
2022-08-09T22:59:58.442Z,21.76
2022-08-09T23:02:27.318Z,21.71
2022-08-09T23:04:55.424Z,21.58
2022-08-09T23:08:22.730Z,21.55
2022-08-09T23:10:31.832Z,21.54
2022-08-09T23:12:59.444Z,21.49
2022-08-09T23:15:27.345Z,21.52
2022-08-09T23:17:54.275Z,21.57
2022-08-09T23:20:21.761Z,21.51
2022-08-09T23:22:48.728Z,21.49
2022-08-09T23:25:15.556Z,21.49
2022-08-09T23:28:13.947Z,21.36
2022-08-09T23:30:30.091Z,21.28
2022-08-09T23:32:56.894Z,21.17
2022-08-09T23:35:24.122Z,21.14
2022-08-09T23:37:50.979Z,21.08
2022-08-09T23:40:18.156Z,21.05
2022-08-09T23:42:45.092Z,21.05
2022-08-09T23:45:37.139Z,21.08
2022-08-09T23:47:59.025Z,21.03
2022-08-09T23:50:26.271Z,20.98
2022-08-09T23:52:53.214Z,21.02
2022-08-09T23:55:20.165Z,20.84
2022-08-09T23:58:07.866Z,20.78
